Flight Track Log - Related Links

Times and Time Zones

All times are in EDT time to prevent confusion due to time zone crossing. See the N2118S flight status page for this flight to view local times or setup timezone preferences in your user account.

Time Position Orientation Groundspeed Altitude Reporting Facility
EDT Latitude Longitude Course Direction KTS MPH feet Rate Location/Type
Mon 05:24:03 PM 30.1794 -97.7300 285° West 129 148 1,900  Level Houston Center
Mon 05:25:05 PM 30.1894 -97.7675 287° West 126 145 2,300 339 Climbing Houston Center
Mon 05:26:07 PM 30.1994 -97.8058 287° West 124 143 2,600 242 Climbing Houston Center
Mon 05:27:09 PM 30.2081 -97.8456 284° West 125 144 2,800 194 Climbing Houston Center
Mon 05:28:00 PM 30.2600 -97.9569 285° West  Level Estimated
Mon 05:28:11 PM 30.2139 -97.8853 280° West 125 144 3,000  Level Houston Center
Mon 05:29:00 PM 30.2709 -98.0047 285° West  Level Estimated
Mon 05:29:13 PM 30.2219 -97.9250 283° West 125 144 3,100  Level Houston Center
Mon 05:30:15 PM 30.2308 -97.9697 283° West 123 142 3,400 242 Climbing Houston Center
Mon 05:31:17 PM 30.2358 -98.0106 278° West 122 140 3,600 242 Climbing Houston Center
Mon 05:32:19 PM 30.2350 -98.0489 269° West 120 138 3,900 290 Climbing Houston Center
Mon 05:33:21 PM 30.2347 -98.0864 270° West 117 135 4,200 194 Climbing Houston Center
Mon 05:34:23 PM 30.2372 -98.1278 274° West 119 137 4,300 194 Climbing Houston Center
Mon 05:35:25 PM 30.2472 -98.1664 287° West 123 142 4,600 290 Climbing Houston Center
Mon 05:36:27 PM 30.2558 -98.2086 283° West 125 144 4,900 242 Climbing Houston Center
Mon 05:37:29 PM 30.2658 -98.2469 287° West 125 144 5,100 242 Climbing Houston Center
Mon 05:38:31 PM 30.2744 -98.2878 284° West 122 140 5,400 290 Climbing Houston Center
Mon 05:39:33 PM 30.2822 -98.3272 283° West 124 143 5,700 339 Climbing Houston Center
Mon 05:40:35 PM 30.2925 -98.3669 287° West 129 148 6,100 387 Climbing Houston Center
Mon 05:41:37 PM 30.3006 -98.4053 284° West 122 140 6,500 242 Climbing Houston Center
Mon 05:42:39 PM 30.3083 -98.4431 283° West 123 142 6,600 145 Climbing Houston Center
Mon 05:43:41 PM 30.3164 -98.4831 283° West 126 145 6,800 242 Climbing Houston Center
Mon 05:44:43 PM 30.3264 -98.5236 286° West 128 147 7,100 98 Climbing Houston Center
Mon 05:45:44 PM 30.3356 -98.5694 283° West 144 166 7,000 -49 Descending Houston Center
Mon 05:46:46 PM 30.3478 -98.6239 285° West 148 170 7,000  Level Houston Center
Mon 05:47:48 PM 30.3594 -98.6711 286° West 152 175 7,000  Level Houston Center
Mon 05:48:50 PM 30.3700 -98.7169 285° West 147 169 7,000  Level Houston Center
Mon 05:49:52 PM 30.3806 -98.7622 285° West 144 166 7,000  Level Houston Center
Mon 05:50:54 PM 30.3914 -98.8092 285° West 148 170 7,000 48 Level Houston Center
Mon 05:51:56 PM 30.4028 -98.8567 286° West 151 174 7,100  Climbing Houston Center
Mon 05:52:58 PM 30.4144 -98.9047 286° West 154 177 7,000  Descending Houston Center
Mon 05:54:00 PM 30.4261 -98.9506 286° West 150 173 7,100  Climbing Houston Center
Mon 05:55:01 PM 30.4392 -99.0033 286° West 145 167 7,000 -49 Descending Houston Center
Mon 05:56:03 PM 30.4483 -99.0508 283° West 149 171 7,000  Level Houston Center
Mon 05:57:05 PM 30.4583 -99.0969 284° West 147 169 7,000  Level Houston Center
Mon 05:58:07 PM 30.4711 -99.1436 288° West 147 169 7,000  Level Houston Center
Mon 05:59:09 PM 30.4819 -99.1881 286° West 145 167 7,000 48 Level Houston Center
Mon 06:00:11 PM 30.4903 -99.2353 282° West 147 169 7,100  Climbing Houston Center
Mon 06:01:13 PM 30.4983 -99.2794 282° West 145 167 7,000  Descending Houston Center
Mon 06:02:14 PM 30.5064 -99.3233 282° West 142 163 7,100 49 Climbing Houston Center
Mon 06:03:16 PM 30.5150 -99.3683 283° West 142 163 7,100 -48 Level Houston Center
Mon 06:04:18 PM 30.5250 -99.4233 282° West 144 166 7,000 -48 Descending Houston Center
Mon 06:05:20 PM 30.5353 -99.4694 285° West 145 167 7,000  Level Houston Center
Mon 06:06:21 PM 30.5417 -99.5150 279° West 146 168 7,000  Level Houston Center
Mon 06:07:23 PM 30.5481 -99.5597 279° West 144 166 7,000  Level Houston Center
Mon 06:08:25 PM 30.5558 -99.6058 281° West 144 166 7,000  Level Houston Center
Mon 06:09:27 PM 30.5650 -99.6528 283° West 146 168 7,000  Level Houston Center
Mon 06:10:29 PM 30.5761 -99.7089 283° West 148 170 7,000  Level Houston Center
Mon 06:11:30 PM 30.5850 -99.7564 282° West 149 171 7,000 49 Level Houston Center
Mon 06:12:32 PM 30.5939 -99.8031 282° West 150 173 7,100  Climbing Houston Center
Mon 06:13:34 PM 30.6050 -99.8494 286° West 149 171 7,000 -48 Descending Houston Center
Mon 06:14:36 PM 30.6133 -99.8933 282° West 146 168 7,000 48 Level Houston Center
Mon 06:15:38 PM 30.6228 -99.9383 284° West 144 166 7,100 242 Climbing Houston Center
Mon 06:16:40 PM 30.6333 -99.9928 283° West 144 166 7,500 341 Climbing Houston Center
Mon 06:17:41 PM 30.6433 -100.0350 285° West 142 163 7,800 293 Climbing Houston Center
Mon 06:18:43 PM 30.6525 -100.0750 285° West 136 157 8,100 290 Climbing Houston Center
Mon 06:19:45 PM 30.6606 -100.1136 284° West 130 150 8,400 290 Climbing Houston Center
Mon 06:20:47 PM 30.6672 -100.1517 282° West 126 145 8,700 242 Climbing Houston Center
Mon 06:21:49 PM 30.6725 -100.1900 279° West 123 142 8,900 290 Climbing Houston Center
Mon 06:22:51 PM 30.6808 -100.2381 281° West 124 143 9,300 242 Climbing Houston Center
Mon 06:23:53 PM 30.6878 -100.2783 281° West 126 145 9,400 194 Climbing Houston Center
Mon 06:24:55 PM 30.6958 -100.3194 283° West 128 147 9,700 194 Climbing Houston Center
Mon 06:25:57 PM 30.7044 -100.3642 283° West 129 148 9,800 81 Climbing Houston Center
Mon 06:27:23 PM 30.7144 -100.4219 281° West 134 154 9,900 81 Climbing Houston Center
Mon 06:28:25 PM 30.7233 -100.4675 283° West 139 160 10,000 48 Climbing Houston Center
Mon 06:29:27 PM 30.7339 -100.5222 283° West 143 165 10,000  Level Houston Center
Mon 06:30:29 PM 30.7425 -100.5683 282° West 144 166 10,000  Level Houston Center
Mon 06:31:31 PM 30.7494 -100.6147 280° West 145 167 10,000  Level Houston Center
Mon 06:32:33 PM 30.7581 -100.6600 282° West 145 167 10,000  Level Houston Center
Mon 06:33:35 PM 30.7664 -100.7056 282° West 145 167 10,000  Level Houston Center
Mon 06:34:37 PM 30.7742 -100.7511 281° West 145 167 10,000  Level Houston Center
Mon 06:35:39 PM 30.7844 -100.8050 283° West 144 166 10,000  Level Houston Center
Mon 06:36:41 PM 30.7917 -100.8511 280° West 144 166 10,000  Level Houston Center
Mon 06:37:43 PM 30.7997 -100.8956 282° West 143 165 10,000  Level Houston Center
Mon 06:38:45 PM 30.8086 -100.9400 283° West 142 163 10,000  Level Houston Center
Mon 06:39:46 PM 30.8167 -100.9844 282° West 141 162 10,000  Level Houston Center
Mon 06:40:48 PM 30.8253 -101.0297 282° West 142 163 10,000  Level Houston Center
Mon 06:41:50 PM 30.8353 -101.0850 282° West 144 166 10,000  Level Houston Center
Mon 06:42:52 PM 30.8439 -101.1294 283° West 144 166 10,000  Level Houston Center
Mon 06:43:54 PM 30.8544 -101.1736 286° West 143 165 10,000  Level Houston Center
Mon 06:44:56 PM 30.8622 -101.2194 281° West 143 165 10,000  Level Houston Center
Mon 06:45:58 PM 30.8714 -101.2656 283° West 146 168 10,000  Level Houston Center
Mon 06:47:00 PM 30.8803 -101.3103 283° West 143 165 10,000  Level Houston Center
Mon 06:48:02 PM 30.8908 -101.3656 283° West 145 167 10,000  Level Houston Center
Mon 06:49:04 PM 30.9006 -101.4114 284° West 145 167 10,000  Level Houston Center
Mon 06:50:05 PM 30.9092 -101.4575 282° West 145 167 10,000  Level Houston Center
Mon 06:51:07 PM 30.9189 -101.5019 284° West 144 166 10,000  Level Houston Center
Mon 06:52:09 PM 30.9275 -101.5464 283° West 141 162 10,000  Level Houston Center
Mon 06:53:11 PM 30.9369 -101.5928 283° West 143 165 10,000  Level Houston Center
Mon 06:54:13 PM 30.9497 -101.6467 285° West 145 167 10,000  Level Houston Center
Mon 06:55:15 PM 30.9619 -101.6931 287° West 147 169 10,000  Level Houston Center
Mon 06:56:17 PM 30.9733 -101.7389 286° West 147 169 10,000  Level Houston Center
Mon 06:57:20 PM 30.9836 -101.7853 285° West 148 170 10,000  Level Houston Center
Mon 06:58:21 PM 30.9925 -101.8319 283° West 148 170 10,000  Level Houston Center
Mon 06:59:23 PM 31.0031 -101.8800 284° West 149 171 10,000  Level Houston Center
Mon 07:00:24 PM 31.0153 -101.9369 284° West 151 174 10,000 49 Level Houston Center
Mon 07:01:26 PM 31.0256 -101.9847 284° West 151 174 10,100  Climbing Houston Center
Mon 07:02:28 PM 31.0353 -102.0322 283° West 151 174 10,000 -48 Descending Houston Center
Mon 07:03:30 PM 31.0458 -102.0797 285° West 152 175 10,000  Level Houston Center
Mon 07:04:32 PM 31.0542 -102.1253 282° West 148 170 10,000 48 Level Houston Center
Mon 07:05:34 PM 31.0625 -102.1711 282° West 146 168 10,100  Climbing Houston Center
Mon 07:06:36 PM 31.0714 -102.2175 283° West 146 168 10,000 -48 Descending Houston Center
Mon 07:07:38 PM 31.0806 -102.2722 281° West 145 167 10,000  Level Houston Center
Mon 07:08:40 PM 31.0892 -102.3164 283° West 141 162 10,000  Level Houston Center
Mon 07:09:42 PM 31.0961 -102.3603 280° West 138 159 10,000  Level Houston Center
Mon 07:10:14 PM 31.0992 -102.3789 281° West 140 161 10,000 64 Level Albuquerque Center
Mon 07:11:16 PM 31.1094 -102.4317 283° West 139 160 10,100  Climbing Albuquerque Center
Mon 07:12:17 PM 31.1183 -102.4772 283° West 141 162 10,000  Descending Albuquerque Center
Mon 07:13:19 PM 31.1267 -102.5233 282° West 143 165 10,100 48 Climbing Albuquerque Center
Mon 07:14:21 PM 31.1347 -102.5683 282° West 143 165 10,100 -49 Level Albuquerque Center
Mon 07:15:22 PM 31.1436 -102.6133 283° West 143 165 10,000 -49 Descending Albuquerque Center
Mon 07:16:24 PM 31.1525 -102.6578 283° West 142 163 10,000  Level Albuquerque Center
Mon 07:17:25 PM 31.1608 -102.7006 283° West 139 160 10,000 49 Level Albuquerque Center
Mon 07:18:27 PM 31.1686 -102.7444 282° West 138 159 10,100  Climbing Albuquerque Center
Mon 07:19:28 PM 31.1797 -102.7972 284° West 139 160 10,000 -49 Descending Albuquerque Center
Mon 07:20:30 PM 31.1889 -102.8406 284° West 139 160 10,000 48 Level Albuquerque Center
Mon 07:21:32 PM 31.1978 -102.8836 284° West 137 158 10,100  Climbing Albuquerque Center
Mon 07:22:33 PM 31.2072 -102.9272 284° West 138 159 10,000 -49 Descending Albuquerque Center
Mon 07:23:34 PM 31.2172 -102.9728 284° West 140 161 10,000  Level Albuquerque Center
Mon 07:24:36 PM 31.2256 -103.0172 282° West 142 163 10,000  Level Albuquerque Center
Mon 07:25:38 PM 31.2356 -103.0606 285° West 140 161 10,000  Level Albuquerque Center
Mon 07:26:40 PM 31.2467 -103.1044 287° West 140 161 10,000  Level Albuquerque Center
Mon 07:27:41 PM 31.2614 -103.1556 289° West 139 160 10,000  Level Albuquerque Center
Mon 07:28:42 PM 31.2719 -103.2000 286° West 141 162 10,000 49 Level Albuquerque Center
Mon 07:29:44 PM 31.2842 -103.2431 288° West 141 162 10,100  Climbing Albuquerque Center
Mon 07:30:45 PM 31.2958 -103.2886 287° West 145 167 10,000  Descending Albuquerque Center
Mon 07:31:47 PM 31.3072 -103.3347 286° West 147 169 10,100  Climbing Albuquerque Center
Mon 07:32:48 PM 31.3183 -103.3806 286° West 147 169 10,000  Descending Albuquerque Center
Mon 07:33:50 PM 31.3297 -103.4272 286° West 148 170 10,100 49 Climbing Albuquerque Center
Mon 07:34:51 PM 31.3417 -103.4719 287° West 146 168 10,100  Level Albuquerque Center
Mon 07:35:53 PM 31.3564 -103.5275 287° West 149 171 10,100  Level Albuquerque Center
Mon 07:36:54 PM 31.3681 -103.5750 286° West 151 174 10,100  Level Albuquerque Center
Mon 07:37:56 PM 31.3792 -103.6231 285° West 154 177 10,100 -49 Level Albuquerque Center
Mon 07:38:57 PM 31.3906 -103.6706 286° West 153 176 10,000  Descending Albuquerque Center
Mon 07:39:59 PM 31.4019 -103.7203 285° West 156 180 10,100 49 Climbing Albuquerque Center
Mon 07:41:00 PM 31.4131 -103.7683 285° West 156 180 10,100  Level Albuquerque Center
Mon 07:42:02 PM 31.4231 -103.8136 285° West 153 176 10,100 -49 Level Albuquerque Center
Mon 07:43:03 PM 31.4347 -103.8678 284° West 146 168 10,000  Descending Albuquerque Center
Mon 07:44:05 PM 31.4439 -103.9139 283° West 145 167 10,100  Climbing Albuquerque Center
Mon 07:45:06 PM 31.4514 -103.9594 281° West 144 166 10,000  Descending Albuquerque Center
Mon 07:46:08 PM 31.4608 -104.0047 284° West 144 166 10,100  Climbing Albuquerque Center
Mon 07:47:09 PM 31.4683 -104.0528 280° West 148 170 10,000  Descending Albuquerque Center
Mon 07:48:11 PM 31.4758 -104.0964 281° West 143 165 10,100 49 Climbing Albuquerque Center
Mon 07:49:12 PM 31.4833 -104.1417 281° West 141 162 10,100  Level Albuquerque Center
Mon 07:50:14 PM 31.4914 -104.1878 282° West 144 166 10,100  Level Albuquerque Center
Mon 07:51:16 PM 31.5017 -104.2439 282° West 147 169 10,100 -49 Level Albuquerque Center
Mon 07:52:17 PM 31.5092 -104.2881 281° West 143 165 10,000 -49 Descending Albuquerque Center
Mon 07:53:19 PM 31.5186 -104.3306 285° West 137 158 10,000 49 Level Albuquerque Center
Mon 07:54:20 PM 31.5267 -104.3747 282° West 138 159 10,100 49 Climbing Albuquerque Center
Mon 07:55:22 PM 31.5353 -104.4219 282° West 146 168 10,100 -49 Level Albuquerque Center
Mon 07:56:23 PM 31.5453 -104.4681 284° West 146 168 10,000 -49 Descending Albuquerque Center
Mon 07:57:25 PM 31.5547 -104.5131 284° West 145 167 10,000  Level Albuquerque Center
Mon 07:58:26 PM 31.5669 -104.5653 285° West 141 162 10,000  Level Albuquerque Center
Mon 07:59:28 PM 31.5778 -104.6103 286° West 143 165 10,000  Level Albuquerque Center
Mon 08:00:29 PM 31.5878 -104.6592 284° West 151 174 10,000 49 Level Albuquerque Center
Mon 08:01:31 PM 31.6008 -104.7056 288° West 151 174 10,100  Climbing Albuquerque Center
Mon 08:02:32 PM 31.6108 -104.7503 285° West 146 168 10,000 -49 Descending Albuquerque Center
Mon 08:03:34 PM 31.6225 -104.7981 286° West 150 173 10,000  Level Albuquerque Center
Mon 08:04:35 PM 31.6336 -104.8456 285° West 152 175 10,000  Level Albuquerque Center
Mon 08:05:37 PM 31.6442 -104.8903 286° West 147 169 10,000  Level Albuquerque Center
Mon 08:06:38 PM 31.6556 -104.9419 285° West 142 163 10,000  Level Albuquerque Center
Mon 08:07:40 PM 31.6661 -104.9856 286° West 140 161 10,000  Level Albuquerque Center
Mon 08:08:41 PM 31.6747 -105.0283 283° West 139 160 10,000  Level Albuquerque Center
Mon 08:09:43 PM 31.6825 -105.0703 282° West 136 157 10,000  Level Albuquerque Center
Mon 08:10:45 PM 31.6917 -105.1111 285° West 133 153 10,000 49 Level Albuquerque Center
Mon 08:11:46 PM 31.7022 -105.1575 285° West 137 158 10,100 49 Climbing Albuquerque Center
Mon 08:12:48 PM 31.7147 -105.2050 287° West 144 166 10,100  Level Albuquerque Center
Mon 08:13:49 PM 31.7289 -105.2567 288° West 144 166 10,100  Level Albuquerque Center
Mon 08:14:51 PM 31.7414 -105.3006 289° West 143 165 10,100  Level Albuquerque Center
Mon 08:15:53 PM 31.7525 -105.3436 287° West 139 160 10,100  Level Albuquerque Center
Mon 08:16:28 PM 31.7589 -105.3733 284° West 140 161 10,100 -71 Level Albuquerque Center
Mon 08:17:17 PM 31.7650 -105.4069 282° West 136 157 10,000  Descending Albuquerque Center
Mon 08:17:56 PM 31.7744 -105.4272 299° West 130 150 10,100 60 Climbing Albuquerque Center
Mon 08:18:57 PM 31.7861 -105.4683 288° West 133 153 10,100  Level Albuquerque Center
Mon 08:19:59 PM 31.7964 -105.5122 285° West 137 158 10,100  Level Albuquerque Center
Mon 08:21:01 PM 31.8100 -105.5650 287° West 140 161 10,100 -49 Level Albuquerque Center
Mon 08:22:02 PM 31.8211 -105.6075 287° West 137 158 10,000  Descending Albuquerque Center
Mon 08:23:04 PM 31.8344 -105.6508 290° West 138 159 10,100 49 Climbing Albuquerque Center
Mon 08:24:05 PM 31.8467 -105.6947 288° West 144 166 10,100  Level Albuquerque Center
Mon 08:25:07 PM 31.8592 -105.7381 289° West 142 163 10,100 -48 Level Albuquerque Center
Mon 08:26:09 PM 31.8708 -105.7806 288° West 139 160 10,000 -49 Descending Albuquerque Center
Mon 08:27:10 PM 31.8817 -105.8217 287° West 134 154 10,000  Level Albuquerque Center
Mon 08:28:11 PM 31.8953 -105.8742 287° West 143 165 10,000 49 Level Albuquerque Center
Mon 08:29:12 PM 31.9067 -105.9114 290° West 132 152 10,100 50 Climbing Albuquerque Center
Mon 08:30:12 PM 31.9142 -105.9519 282° West 126 145 10,100 -48 Level Albuquerque Center
Mon 08:31:16 PM 31.9244 -106.0003 284° West 135 155 10,000  Descending Albuquerque Center
Mon 08:32:26 PM 31.9339 -106.0472 283° West 130 150 10,100 -49 Climbing Albuquerque Center
Mon 08:33:19 PM 31.9450 -106.0844 289° West 137 158 9,900 -365 Descending Albuquerque Center
Mon 08:34:21 PM 31.9558 -106.1344 284° West 155 178 9,400 -390 Descending Albuquerque Center
Mon 08:35:22 PM 31.9658 -106.1869 283° West 154 177 9,100 -198 Descending Albuquerque Center
Mon 08:36:22 PM 31.9742 -106.2322 282° West 132 152 9,000 -32 Descending Albuquerque Center
Mon 08:38:27 PM 31.9894 -106.3078 283° West 128 147 9,000 -161 Level Albuquerque Center
Mon 08:39:28 PM 31.9975 -106.3572 281° West 127 146 8,500 -390 Descending Albuquerque Center
Mon 08:40:30 PM 32.0014 -106.4031 276° West 140 161 8,200 -432 Descending Albuquerque Center
Mon 08:41:19 PM 32.0061 -106.4447 278° West 148 170 7,700 -390 Descending Albuquerque Center
Mon 08:42:33 PM 32.0122 -106.4972 278° West 146 168 7,400 -243 Descending Albuquerque Center
Mon 08:44:00 PM 31.9705 -106.5479 226° Southwest  Level FlightAware Approximate
Mon 08:51:00 PM 31.9000 -106.6333 275° West  Level FlightAware Approximate
Mon 08:52:00 PM 31.9093 -106.6411 275° West  Level Estimated
Mon 08:53:00 PM 31.9093 -106.6411 275° West  Level Estimated

Login

Don't have an account? Register now (free) for customized features, flight alerts, and more!